sensor_id;sensor_type;location;lat;lon;timestamp;P1;durP1;ratioP1;P2;durP2;ratioP2
51286;SDS011;37364;46.974;18.916;2023-08-06T00:01:01;21.55;;;11.10;;
51286;SDS011;37364;46.974;18.916;2023-08-06T00:03:31;17.23;;;10.60;;
51286;SDS011;37364;46.974;18.916;2023-08-06T00:06:02;25.95;;;11.70;;
51286;SDS011;37364;46.974;18.916;2023-08-06T00:08:34;18.17;;;11.98;;
51286;SDS011;37364;46.974;18.916;2023-08-06T00:11:07;17.10;;;11.40;;
51286;SDS011;37364;46.974;18.916;2023-08-06T00:13:37;16.08;;;11.05;;
51286;SDS011;37364;46.974;18.916;2023-08-06T00:16:10;16.00;;;10.88;;
51286;SDS011;37364;46.974;18.916;2023-08-06T00:18:41;16.02;;;11.75;;
51286;SDS011;37364;46.974;18.916;2023-08-06T00:21:11;18.95;;;12.45;;
51286;SDS011;37364;46.974;18.916;2023-08-06T00:23:42;17.05;;;11.68;;
51286;SDS011;37364;46.974;18.916;2023-08-06T00:26:14;20.73;;;12.75;;
51286;SDS011;37364;46.974;18.916;2023-08-06T00:28:45;15.60;;;11.23;;
51286;SDS011;37364;46.974;18.916;2023-08-06T00:31:15;14.90;;;10.98;;
51286;SDS011;37364;46.974;18.916;2023-08-06T00:33:45;15.45;;;11.18;;
51286;SDS011;37364;46.974;18.916;2023-08-06T00:36:15;16.10;;;12.48;;
51286;SDS011;37364;46.974;18.916;2023-08-06T00:38:45;15.48;;;11.50;;
51286;SDS011;37364;46.974;18.916;2023-08-06T00:41:18;17.25;;;11.85;;
51286;SDS011;37364;46.974;18.916;2023-08-06T00:43:48;21.88;;;13.13;;
51286;SDS011;37364;46.974;18.916;2023-08-06T00:46:18;19.13;;;14.57;;
51286;SDS011;37364;46.974;18.916;2023-08-06T00:48:48;21.05;;;15.85;;
51286;SDS011;37364;46.974;18.916;2023-08-06T00:51:21;26.40;;;17.55;;
51286;SDS011;37364;46.974;18.916;2023-08-06T00:53:52;30.13;;;18.15;;
51286;SDS011;37364;46.974;18.916;2023-08-06T00:56:25;27.55;;;18.45;;
51286;SDS011;37364;46.974;18.916;2023-08-06T00:58:55;41.97;;;20.30;;
51286;SDS011;37364;46.974;18.916;2023-08-06T01:01:25;29.48;;;19.73;;
51286;SDS011;37364;46.974;18.916;2023-08-06T01:03:55;30.27;;;20.02;;
51286;SDS011;37364;46.974;18.916;2023-08-06T01:06:29;25.90;;;18.30;;
51286;SDS011;37364;46.974;18.916;2023-08-06T01:09:12;31.08;;;19.67;;
51286;SDS011;37364;46.974;18.916;2023-08-06T01:11:59;36.95;;;21.27;;
51286;SDS011;37364;46.974;18.916;2023-08-06T01:17:15;25.95;;;18.40;;
51286;SDS011;37364;46.974;18.916;2023-08-06T01:19:46;35.63;;;20.15;;
51286;SDS011;37364;46.974;18.916;2023-08-06T01:22:19;29.27;;;19.85;;
51286;SDS011;37364;46.974;18.916;2023-08-06T01:24:49;37.00;;;20.67;;
51286;SDS011;37364;46.974;18.916;2023-08-06T01:27:22;31.92;;;22.13;;
51286;SDS011;37364;46.974;18.916;2023-08-06T01:30:02;36.33;;;22.65;;
51286;SDS011;37364;46.974;18.916;2023-08-06T01:32:36;46.75;;;24.17;;
51286;SDS011;37364;46.974;18.916;2023-08-06T01:35:12;40.80;;;22.65;;
51286;SDS011;37364;46.974;18.916;2023-08-06T01:37:48;44.65;;;26.48;;
51286;SDS011;37364;46.974;18.916;2023-08-06T01:40:18;36.80;;;24.17;;
51286;SDS011;37364;46.974;18.916;2023-08-06T01:42:48;40.60;;;23.95;;
51286;SDS011;37364;46.974;18.916;2023-08-06T01:45:19;34.83;;;21.73;;
51286;SDS011;37364;46.974;18.916;2023-08-06T01:47:50;33.60;;;21.65;;
51286;SDS011;37364;46.974;18.916;2023-08-06T01:50:20;37.10;;;21.48;;
51286;SDS011;37364;46.974;18.916;2023-08-06T01:52:53;36.75;;;21.85;;
51286;SDS011;37364;46.974;18.916;2023-08-06T01:55:24;36.03;;;21.58;;
51286;SDS011;37364;46.974;18.916;2023-08-06T02:00:28;30.55;;;20.00;;
51286;SDS011;37364;46.974;18.916;2023-08-06T02:02:58;28.38;;;19.50;;
51286;SDS011;37364;46.974;18.916;2023-08-06T02:05:28;36.80;;;20.58;;
51286;SDS011;37364;46.974;18.916;2023-08-06T02:08:01;28.00;;;18.98;;
51286;SDS011;37364;46.974;18.916;2023-08-06T02:10:31;34.08;;;19.00;;
51286;SDS011;37364;46.974;18.916;2023-08-06T02:13:01;26.13;;;17.83;;
51286;SDS011;37364;46.974;18.916;2023-08-06T02:15:31;33.80;;;19.48;;
51286;SDS011;37364;46.974;18.916;2023-08-06T02:18:03;23.60;;;18.52;;
51286;SDS011;37364;46.974;18.916;2023-08-06T02:20:33;27.60;;;18.38;;
51286;SDS011;37364;46.974;18.916;2023-08-06T02:23:06;29.52;;;19.25;;
51286;SDS011;37364;46.974;18.916;2023-08-06T02:25:36;29.65;;;19.38;;
51286;SDS011;37364;46.974;18.916;2023-08-06T02:28:07;26.23;;;18.38;;
51286;SDS011;37364;46.974;18.916;2023-08-06T02:30:39;35.30;;;19.00;;
51286;SDS011;37364;46.974;18.916;2023-08-06T02:33:11;27.42;;;19.25;;
51286;SDS011;37364;46.974;18.916;2023-08-06T02:35:41;27.77;;;19.17;;
51286;SDS011;37364;46.974;18.916;2023-08-06T02:38:13;29.23;;;18.92;;
51286;SDS011;37364;46.974;18.916;2023-08-06T02:40:44;34.35;;;17.85;;
51286;SDS011;37364;46.974;18.916;2023-08-06T02:43:15;29.02;;;17.98;;
51286;SDS011;37364;46.974;18.916;2023-08-06T02:45:45;32.72;;;18.13;;
51286;SDS011;37364;46.974;18.916;2023-08-06T02:48:16;26.92;;;16.20;;
51286;SDS011;37364;46.974;18.916;2023-08-06T02:50:46;24.98;;;16.27;;
51286;SDS011;37364;46.974;18.916;2023-08-06T02:53:19;24.15;;;16.52;;
51286;SDS011;37364;46.974;18.916;2023-08-06T02:55:49;28.50;;;17.60;;
51286;SDS011;37364;46.974;18.916;2023-08-06T02:58:25;26.23;;;16.33;;
51286;SDS011;37364;46.974;18.916;2023-08-06T03:01:18;19.70;;;15.02;;
51286;SDS011;37364;46.974;18.916;2023-08-06T03:03:56;23.30;;;14.57;;
51286;SDS011;37364;46.974;18.916;2023-08-06T03:06:33;22.75;;;15.52;;
51286;SDS011;37364;46.974;18.916;2023-08-06T03:09:06;16.50;;;13.85;;
51286;SDS011;37364;46.974;18.916;2023-08-06T03:11:36;20.80;;;15.00;;
51286;SDS011;37364;46.974;18.916;2023-08-06T03:14:11;26.75;;;14.52;;
51286;SDS011;37364;46.974;18.916;2023-08-06T03:16:43;14.85;;;11.45;;
51286;SDS011;37364;46.974;18.916;2023-08-06T03:19:16;18.35;;;7.88;;
51286;SDS011;37364;46.974;18.916;2023-08-06T03:21:46;9.73;;;6.43;;
51286;SDS011;37364;46.974;18.916;2023-08-06T03:24:20;9.10;;;6.72;;
51286;SDS011;37364;46.974;18.916;2023-08-06T03:26:50;8.95;;;7.30;;
51286;SDS011;37364;46.974;18.916;2023-08-06T03:29:23;14.77;;;7.88;;
51286;SDS011;37364;46.974;18.916;2023-08-06T03:31:55;13.02;;;7.43;;
51286;SDS011;37364;46.974;18.916;2023-08-06T03:34:26;13.93;;;7.03;;
51286;SDS011;37364;46.974;18.916;2023-08-06T03:36:56;10.88;;;7.85;;
51286;SDS011;37364;46.974;18.916;2023-08-06T03:39:29;10.90;;;8.05;;
51286;SDS011;37364;46.974;18.916;2023-08-06T03:42:00;17.23;;;9.15;;
51286;SDS011;37364;46.974;18.916;2023-08-06T03:44:31;12.13;;;9.98;;
51286;SDS011;37364;46.974;18.916;2023-08-06T03:47:01;14.40;;;9.73;;
51286;SDS011;37364;46.974;18.916;2023-08-06T03:49:31;16.42;;;10.05;;
51286;SDS011;37364;46.974;18.916;2023-08-06T03:52:03;22.85;;;11.30;;
51286;SDS011;37364;46.974;18.916;2023-08-06T03:54:37;17.77;;;12.05;;
51286;SDS011;37364;46.974;18.916;2023-08-06T03:57:07;19.42;;;11.85;;
51286;SDS011;37364;46.974;18.916;2023-08-06T03:59:38;17.65;;;10.75;;
51286;SDS011;37364;46.974;18.916;2023-08-06T04:02:16;22.92;;;10.75;;
51286;SDS011;37364;46.974;18.916;2023-08-06T04:04:46;21.25;;;10.60;;
51286;SDS011;37364;46.974;18.916;2023-08-06T04:07:16;18.52;;;9.80;;
51286;SDS011;37364;46.974;18.916;2023-08-06T04:09:56;23.90;;;10.95;;
51286;SDS011;37364;46.974;18.916;2023-08-06T04:12:27;15.52;;;11.52;;
51286;SDS011;37364;46.974;18.916;2023-08-06T04:14:58;22.38;;;11.75;;
51286;SDS011;37364;46.974;18.916;2023-08-06T04:17:30;21.08;;;11.07;;
51286;SDS011;37364;46.974;18.916;2023-08-06T04:20:00;21.35;;;9.45;;
51286;SDS011;37364;46.974;18.916;2023-08-06T04:22:30;14.70;;;8.35;;
51286;SDS011;37364;46.974;18.916;2023-08-06T04:25:03;13.55;;;7.75;;
51286;SDS011;37364;46.974;18.916;2023-08-06T04:27:34;16.25;;;6.35;;
51286;SDS011;37364;46.974;18.916;2023-08-06T04:30:10;5.68;;;3.95;;
51286;SDS011;37364;46.974;18.916;2023-08-06T04:32:41;6.93;;;4.22;;
51286;SDS011;37364;46.974;18.916;2023-08-06T04:35:11;8.43;;;4.38;;
51286;SDS011;37364;46.974;18.916;2023-08-06T04:37:41;8.32;;;4.22;;
51286;SDS011;37364;46.974;18.916;2023-08-06T04:40:14;7.28;;;3.70;;
51286;SDS011;37364;46.974;18.916;2023-08-06T04:42:45;5.28;;;3.33;;
51286;SDS011;37364;46.974;18.916;2023-08-06T04:45:16;7.32;;;3.80;;
51286;SDS011;37364;46.974;18.916;2023-08-06T04:47:46;9.20;;;4.22;;
51286;SDS011;37364;46.974;18.916;2023-08-06T04:50:16;6.22;;;3.88;;
51286;SDS011;37364;46.974;18.916;2023-08-06T04:52:47;12.23;;;3.90;;
51286;SDS011;37364;46.974;18.916;2023-08-06T04:55:19;12.27;;;4.00;;
51286;SDS011;37364;46.974;18.916;2023-08-06T04:57:50;15.38;;;4.28;;
51286;SDS011;37364;46.974;18.916;2023-08-06T05:00:20;8.80;;;4.43;;
51286;SDS011;37364;46.974;18.916;2023-08-06T05:02:51;5.90;;;4.05;;
51286;SDS011;37364;46.974;18.916;2023-08-06T05:05:22;11.80;;;5.72;;
51286;SDS011;37364;46.974;18.916;2023-08-06T05:07:53;9.13;;;4.00;;
51286;SDS011;37364;46.974;18.916;2023-08-06T05:10:27;10.47;;;4.20;;
51286;SDS011;37364;46.974;18.916;2023-08-06T05:12:57;5.45;;;4.20;;
51286;SDS011;37364;46.974;18.916;2023-08-06T05:15:28;11.90;;;3.83;;
51286;SDS011;37364;46.974;18.916;2023-08-06T05:18:00;12.48;;;4.47;;
51286;SDS011;37364;46.974;18.916;2023-08-06T05:20:30;8.65;;;4.22;;
51286;SDS011;37364;46.974;18.916;2023-08-06T05:23:00;5.68;;;3.92;;
51286;SDS011;37364;46.974;18.916;2023-08-06T05:25:33;5.18;;;3.90;;
51286;SDS011;37364;46.974;18.916;2023-08-06T05:28:04;7.82;;;3.05;;
51286;SDS011;37364;46.974;18.916;2023-08-06T05:30:38;9.50;;;2.88;;
51286;SDS011;37364;46.974;18.916;2023-08-06T05:33:09;2.53;;;1.98;;
51286;SDS011;37364;46.974;18.916;2023-08-06T05:35:40;4.30;;;2.08;;
51286;SDS011;37364;46.974;18.916;2023-08-06T05:38:11;2.88;;;1.73;;
51286;SDS011;37364;46.974;18.916;2023-08-06T05:40:43;2.60;;;1.15;;
51286;SDS011;37364;46.974;18.916;2023-08-06T05:43:14;3.10;;;1.20;;
51286;SDS011;37364;46.974;18.916;2023-08-06T05:45:44;1.52;;;0.77;;
51286;SDS011;37364;46.974;18.916;2023-08-06T05:48:15;0.35;;;0.35;;
51286;SDS011;37364;46.974;18.916;2023-08-06T05:50:45;2.92;;;0.52;;
51286;SDS011;37364;46.974;18.916;2023-08-06T05:53:16;1.10;;;0.45;;
51286;SDS011;37364;46.974;18.916;2023-08-06T05:55:48;1.35;;;0.43;;
51286;SDS011;37364;46.974;18.916;2023-08-06T05:58:18;2.47;;;0.53;;
51286;SDS011;37364;46.974;18.916;2023-08-06T06:00:51;0.70;;;0.40;;
51286;SDS011;37364;46.974;18.916;2023-08-06T06:03:23;1.45;;;0.47;;
51286;SDS011;37364;46.974;18.916;2023-08-06T06:05:53;1.90;;;0.35;;
51286;SDS011;37364;46.974;18.916;2023-08-06T06:08:23;1.70;;;0.68;;
51286;SDS011;37364;46.974;18.916;2023-08-06T06:10:56;0.73;;;0.50;;
51286;SDS011;37364;46.974;18.916;2023-08-06T06:13:27;7.32;;;0.57;;
51286;SDS011;37364;46.974;18.916;2023-08-06T06:15:57;3.33;;;0.30;;
51286;SDS011;37364;46.974;18.916;2023-08-06T06:18:27;0.88;;;0.40;;
51286;SDS011;37364;46.974;18.916;2023-08-06T06:20:58;1.95;;;0.40;;
51286;SDS011;37364;46.974;18.916;2023-08-06T06:23:28;0.65;;;0.65;;
51286;SDS011;37364;46.974;18.916;2023-08-06T06:26:00;1.77;;;0.20;;
51286;SDS011;37364;46.974;18.916;2023-08-06T06:28:31;4.78;;;0.70;;
51286;SDS011;37364;46.974;18.916;2023-08-06T06:31:01;1.70;;;0.15;;
51286;SDS011;37364;46.974;18.916;2023-08-06T06:33:32;0.13;;;0.13;;
51286;SDS011;37364;46.974;18.916;2023-08-06T06:36:02;0.15;;;0.15;;
51286;SDS011;37364;46.974;18.916;2023-08-06T06:38:34;0.47;;;0.25;;
51286;SDS011;37364;46.974;18.916;2023-08-06T06:41:07;6.10;;;0.30;;
51286;SDS011;37364;46.974;18.916;2023-08-06T06:43:37;1.53;;;0.30;;
51286;SDS011;37364;46.974;18.916;2023-08-06T06:46:08;0.20;;;0.20;;
51286;SDS011;37364;46.974;18.916;2023-08-06T06:48:38;0.20;;;0.20;;
51286;SDS011;37364;46.974;18.916;2023-08-06T06:51:08;0.20;;;0.20;;
51286;SDS011;37364;46.974;18.916;2023-08-06T06:53:39;1.65;;;0.13;;
51286;SDS011;37364;46.974;18.916;2023-08-06T06:56:12;1.95;;;0.20;;
51286;SDS011;37364;46.974;18.916;2023-08-06T06:58:42;0.20;;;0.20;;
51286;SDS011;37364;46.974;18.916;2023-08-06T07:01:12;0.13;;;0.13;;
51286;SDS011;37364;46.974;18.916;2023-08-06T07:03:42;0.17;;;0.17;;
51286;SDS011;37364;46.974;18.916;2023-08-06T07:06:12;0.32;;;0.25;;
51286;SDS011;37364;46.974;18.916;2023-08-06T07:08:45;0.30;;;0.30;;
51286;SDS011;37364;46.974;18.916;2023-08-06T07:11:17;0.60;;;0.60;;
51286;SDS011;37364;46.974;18.916;2023-08-06T07:13:49;6.40;;;0.52;;
51286;SDS011;37364;46.974;18.916;2023-08-06T07:16:19;1.73;;;0.35;;
51286;SDS011;37364;46.974;18.916;2023-08-06T07:18:50;0.22;;;0.20;;
51286;SDS011;37364;46.974;18.916;2023-08-06T07:21:23;1.35;;;0.28;;
51286;SDS011;37364;46.974;18.916;2023-08-06T07:23:53;1.95;;;0.30;;
51286;SDS011;37364;46.974;18.916;2023-08-06T07:26:26;0.20;;;0.20;;
51286;SDS011;37364;46.974;18.916;2023-08-06T07:28:56;0.20;;;0.20;;
51286;SDS011;37364;46.974;18.916;2023-08-06T07:31:26;0.30;;;0.30;;
51286;SDS011;37364;46.974;18.916;2023-08-06T07:33:57;0.30;;;0.30;;
51286;SDS011;37364;46.974;18.916;2023-08-06T07:36:27;0.32;;;0.30;;
51286;SDS011;37364;46.974;18.916;2023-08-06T07:38:57;0.40;;;0.40;;
51286;SDS011;37364;46.974;18.916;2023-08-06T07:41:30;1.88;;;0.40;;
51286;SDS011;37364;46.974;18.916;2023-08-06T07:44:00;0.40;;;0.40;;
51286;SDS011;37364;46.974;18.916;2023-08-06T07:46:30;0.30;;;0.30;;
51286;SDS011;37364;46.974;18.916;2023-08-06T07:49:00;0.40;;;0.40;;
51286;SDS011;37364;46.974;18.916;2023-08-06T07:51:31;0.40;;;0.40;;
51286;SDS011;37364;46.974;18.916;2023-08-06T07:54:01;0.65;;;0.63;;
51286;SDS011;37364;46.974;18.916;2023-08-06T07:56:33;4.95;;;0.77;;
51286;SDS011;37364;46.974;18.916;2023-08-06T07:59:04;7.35;;;0.55;;
51286;SDS011;37364;46.974;18.916;2023-08-06T08:01:34;6.63;;;0.82;;
51286;SDS011;37364;46.974;18.916;2023-08-06T08:04:04;1.88;;;0.60;;
51286;SDS011;37364;46.974;18.916;2023-08-06T08:06:35;0.30;;;0.30;;
51286;SDS011;37364;46.974;18.916;2023-08-06T08:09:05;1.35;;;0.70;;
51286;SDS011;37364;46.974;18.916;2023-08-06T08:11:37;8.50;;;0.75;;
51286;SDS011;37364;46.974;18.916;2023-08-06T08:14:09;0.77;;;0.52;;
51286;SDS011;37364;46.974;18.916;2023-08-06T08:16:39;0.50;;;0.40;;
51286;SDS011;37364;46.974;18.916;2023-08-06T08:19:09;1.27;;;0.75;;
51286;SDS011;37364;46.974;18.916;2023-08-06T08:21:40;0.95;;;0.88;;
51286;SDS011;37364;46.974;18.916;2023-08-06T08:24:10;2.30;;;0.52;;
51286;SDS011;37364;46.974;18.916;2023-08-06T08:26:42;1.60;;;0.68;;
51286;SDS011;37364;46.974;18.916;2023-08-06T08:29:13;0.75;;;0.68;;
51286;SDS011;37364;46.974;18.916;2023-08-06T08:31:43;0.88;;;0.88;;
51286;SDS011;37364;46.974;18.916;2023-08-06T08:34:15;0.70;;;0.70;;
51286;SDS011;37364;46.974;18.916;2023-08-06T08:36:46;0.80;;;0.80;;
51286;SDS011;37364;46.974;18.916;2023-08-06T08:39:19;0.77;;;0.77;;
51286;SDS011;37364;46.974;18.916;2023-08-06T08:41:52;1.30;;;1.20;;
51286;SDS011;37364;46.974;18.916;2023-08-06T08:44:22;2.03;;;0.70;;
51286;SDS011;37364;46.974;18.916;2023-08-06T08:46:55;1.55;;;1.00;;
51286;SDS011;37364;46.974;18.916;2023-08-06T08:49:27;3.45;;;0.90;;
51286;SDS011;37364;46.974;18.916;2023-08-06T08:51:58;1.92;;;1.20;;
51286;SDS011;37364;46.974;18.916;2023-08-06T08:54:33;5.63;;;0.80;;
51286;SDS011;37364;46.974;18.916;2023-08-06T08:57:07;3.95;;;1.15;;
51286;SDS011;37364;46.974;18.916;2023-08-06T08:59:37;0.90;;;0.88;;
51286;SDS011;37364;46.974;18.916;2023-08-06T09:02:07;1.10;;;1.00;;
51286;SDS011;37364;46.974;18.916;2023-08-06T09:04:40;1.40;;;1.30;;
51286;SDS011;37364;46.974;18.916;2023-08-06T09:07:12;1.33;;;1.02;;
51286;SDS011;37364;46.974;18.916;2023-08-06T09:09:45;1.20;;;1.02;;
51286;SDS011;37364;46.974;18.916;2023-08-06T09:12:21;3.13;;;0.93;;
51286;SDS011;37364;46.974;18.916;2023-08-06T09:14:52;1.20;;;0.47;;
51286;SDS011;37364;46.974;18.916;2023-08-06T09:17:22;1.23;;;0.98;;
51286;SDS011;37364;46.974;18.916;2023-08-06T09:19:52;2.30;;;1.25;;
51286;SDS011;37364;46.974;18.916;2023-08-06T09:22:22;5.63;;;1.13;;
51286;SDS011;37364;46.974;18.916;2023-08-06T09:24:53;2.28;;;1.10;;
51286;SDS011;37364;46.974;18.916;2023-08-06T09:27:25;0.70;;;0.70;;
51286;SDS011;37364;46.974;18.916;2023-08-06T09:29:56;1.02;;;0.85;;
51286;SDS011;37364;46.974;18.916;2023-08-06T09:32:26;6.18;;;1.00;;
51286;SDS011;37364;46.974;18.916;2023-08-06T09:37:35;2.42;;;0.90;;
51286;SDS011;37364;46.974;18.916;2023-08-06T09:40:20;1.02;;;1.02;;
51286;SDS011;37364;46.974;18.916;2023-08-06T09:42:58;0.73;;;0.73;;
51286;SDS011;37364;46.974;18.916;2023-08-06T09:45:32;5.15;;;1.08;;
51286;SDS011;37364;46.974;18.916;2023-08-06T09:48:04;0.70;;;0.70;;
51286;SDS011;37364;46.974;18.916;2023-08-06T09:50:35;1.77;;;0.88;;
51286;SDS011;37364;46.974;18.916;2023-08-06T09:53:08;2.80;;;0.88;;
51286;SDS011;37364;46.974;18.916;2023-08-06T09:55:41;1.17;;;1.10;;
51286;SDS011;37364;46.974;18.916;2023-08-06T09:58:14;3.17;;;1.27;;
51286;SDS011;37364;46.974;18.916;2023-08-06T10:00:44;1.48;;;1.35;;
51286;SDS011;37364;46.974;18.916;2023-08-06T10:03:17;1.05;;;1.02;;
51286;SDS011;37364;46.974;18.916;2023-08-06T10:05:48;1.00;;;0.77;;
51286;SDS011;37364;46.974;18.916;2023-08-06T10:08:18;1.02;;;0.73;;
51286;SDS011;37364;46.974;18.916;2023-08-06T10:10:49;3.22;;;1.10;;
51286;SDS011;37364;46.974;18.916;2023-08-06T10:13:23;1.45;;;1.05;;
51286;SDS011;37364;46.974;18.916;2023-08-06T10:15:54;4.95;;;1.15;;
51286;SDS011;37364;46.974;18.916;2023-08-06T10:18:25;4.65;;;1.10;;
51286;SDS011;37364;46.974;18.916;2023-08-06T10:20:56;2.42;;;0.73;;
51286;SDS011;37364;46.974;18.916;2023-08-06T10:23:32;5.78;;;0.90;;
51286;SDS011;37364;46.974;18.916;2023-08-06T10:26:05;3.50;;;1.02;;
51286;SDS011;37364;46.974;18.916;2023-08-06T10:28:38;1.02;;;0.93;;
51286;SDS011;37364;46.974;18.916;2023-08-06T10:33:41;2.78;;;0.85;;
51286;SDS011;37364;46.974;18.916;2023-08-06T10:36:12;1.23;;;1.10;;
51286;SDS011;37364;46.974;18.916;2023-08-06T10:38:46;1.45;;;1.00;;
51286;SDS011;37364;46.974;18.916;2023-08-06T10:41:22;6.97;;;1.27;;
51286;SDS011;37364;46.974;18.916;2023-08-06T10:43:57;4.38;;;0.90;;
51286;SDS011;37364;46.974;18.916;2023-08-06T10:46:35;1.85;;;1.08;;
51286;SDS011;37364;46.974;18.916;2023-08-06T10:49:09;1.42;;;1.00;;
51286;SDS011;37364;46.974;18.916;2023-08-06T10:51:42;5.40;;;0.95;;
51286;SDS011;37364;46.974;18.916;2023-08-06T10:54:12;0.80;;;0.80;;
51286;SDS011;37364;46.974;18.916;2023-08-06T10:56:43;1.40;;;0.95;;
51286;SDS011;37364;46.974;18.916;2023-08-06T10:59:17;0.65;;;0.65;;
51286;SDS011;37364;46.974;18.916;2023-08-06T11:01:47;1.15;;;1.00;;
51286;SDS011;37364;46.974;18.916;2023-08-06T11:04:18;1.08;;;1.02;;
51286;SDS011;37364;46.974;18.916;2023-08-06T11:06:51;3.70;;;0.98;;
51286;SDS011;37364;46.974;18.916;2023-08-06T11:09:22;0.60;;;0.60;;
51286;SDS011;37364;46.974;18.916;2023-08-06T11:11:53;2.65;;;1.02;;
51286;SDS011;37364;46.974;18.916;2023-08-06T11:14:26;5.57;;;2.15;;
51286;SDS011;37364;46.974;18.916;2023-08-06T11:16:56;6.57;;;1.00;;
51286;SDS011;37364;46.974;18.916;2023-08-06T11:19:26;0.85;;;0.85;;
51286;SDS011;37364;46.974;18.916;2023-08-06T11:21:56;0.98;;;0.80;;
51286;SDS011;37364;46.974;18.916;2023-08-06T11:24:28;5.63;;;0.90;;
51286;SDS011;37364;46.974;18.916;2023-08-06T11:26:58;0.70;;;0.70;;
51286;SDS011;37364;46.974;18.916;2023-08-06T11:29:31;0.70;;;0.70;;
51286;SDS011;37364;46.974;18.916;2023-08-06T11:32:06;1.63;;;1.00;;
51286;SDS011;37364;46.974;18.916;2023-08-06T11:34:37;4.28;;;0.90;;
51286;SDS011;37364;46.974;18.916;2023-08-06T11:37:08;1.33;;;1.08;;
51286;SDS011;37364;46.974;18.916;2023-08-06T11:39:39;0.85;;;0.85;;
51286;SDS011;37364;46.974;18.916;2023-08-06T11:42:16;7.10;;;1.63;;
51286;SDS011;37364;46.974;18.916;2023-08-06T11:44:49;1.48;;;1.10;;
51286;SDS011;37364;46.974;18.916;2023-08-06T11:47:19;0.95;;;0.95;;
51286;SDS011;37364;46.974;18.916;2023-08-06T11:49:49;2.20;;;0.88;;
51286;SDS011;37364;46.974;18.916;2023-08-06T11:52:20;3.72;;;1.00;;
51286;SDS011;37364;46.974;18.916;2023-08-06T11:55:00;1.05;;;1.00;;
51286;SDS011;37364;46.974;18.916;2023-08-06T11:57:33;1.45;;;1.00;;
51286;SDS011;37364;46.974;18.916;2023-08-06T12:00:08;0.98;;;0.90;;
51286;SDS011;37364;46.974;18.916;2023-08-06T12:02:43;1.70;;;1.60;;
51286;SDS011;37364;46.974;18.916;2023-08-06T12:05:16;1.00;;;1.00;;
51286;SDS011;37364;46.974;18.916;2023-08-06T12:07:47;1.50;;;0.88;;
51286;SDS011;37364;46.974;18.916;2023-08-06T12:10:18;0.90;;;0.90;;
51286;SDS011;37364;46.974;18.916;2023-08-06T12:12:49;1.08;;;1.08;;
51286;SDS011;37364;46.974;18.916;2023-08-06T12:15:22;4.68;;;1.42;;
51286;SDS011;37364;46.974;18.916;2023-08-06T12:17:53;1.58;;;1.05;;
51286;SDS011;37364;46.974;18.916;2023-08-06T12:20:23;0.95;;;0.95;;
51286;SDS011;37364;46.974;18.916;2023-08-06T12:22:55;2.15;;;0.93;;
51286;SDS011;37364;46.974;18.916;2023-08-06T12:25:25;1.10;;;1.00;;
51286;SDS011;37364;46.974;18.916;2023-08-06T12:27:58;1.27;;;1.15;;
51286;SDS011;37364;46.974;18.916;2023-08-06T12:30:31;12.15;;;1.17;;
51286;SDS011;37364;46.974;18.916;2023-08-06T12:33:01;2.05;;;1.10;;
51286;SDS011;37364;46.974;18.916;2023-08-06T12:35:32;7.75;;;1.27;;
51286;SDS011;37364;46.974;18.916;2023-08-06T12:38:02;1.13;;;1.10;;
51286;SDS011;37364;46.974;18.916;2023-08-06T12:40:32;6.13;;;1.10;;
51286;SDS011;37364;46.974;18.916;2023-08-06T12:43:07;3.03;;;1.10;;
51286;SDS011;37364;46.974;18.916;2023-08-06T12:45:39;3.08;;;0.98;;
51286;SDS011;37364;46.974;18.916;2023-08-06T12:48:10;1.55;;;1.42;;
51286;SDS011;37364;46.974;18.916;2023-08-06T12:50:40;2.05;;;1.80;;
51286;SDS011;37364;46.974;18.916;2023-08-06T12:53:10;1.20;;;1.20;;
51286;SDS011;37364;46.974;18.916;2023-08-06T12:55:41;3.17;;;1.50;;
51286;SDS011;37364;46.974;18.916;2023-08-06T12:58:11;1.42;;;1.33;;
51286;SDS011;37364;46.974;18.916;2023-08-06T13:00:44;2.28;;;1.42;;
51286;SDS011;37364;46.974;18.916;2023-08-06T13:03:14;2.15;;;1.48;;
51286;SDS011;37364;46.974;18.916;2023-08-06T13:05:44;3.50;;;1.40;;
51286;SDS011;37364;46.974;18.916;2023-08-06T13:08:14;4.57;;;1.50;;
51286;SDS011;37364;46.974;18.916;2023-08-06T13:10:44;1.67;;;1.40;;
51286;SDS011;37364;46.974;18.916;2023-08-06T13:13:16;2.10;;;1.30;;
51286;SDS011;37364;46.974;18.916;2023-08-06T13:15:49;1.55;;;1.25;;
51286;SDS011;37364;46.974;18.916;2023-08-06T13:18:19;1.27;;;1.20;;
51286;SDS011;37364;46.974;18.916;2023-08-06T13:20:49;1.40;;;1.30;;
51286;SDS011;37364;46.974;18.916;2023-08-06T13:23:23;1.40;;;1.27;;
51286;SDS011;37364;46.974;18.916;2023-08-06T13:25:53;2.30;;;1.35;;
51286;SDS011;37364;46.974;18.916;2023-08-06T13:28:23;2.28;;;1.42;;
51286;SDS011;37364;46.974;18.916;2023-08-06T13:30:56;1.23;;;1.20;;
51286;SDS011;37364;46.974;18.916;2023-08-06T13:33:26;2.10;;;1.50;;
51286;SDS011;37364;46.974;18.916;2023-08-06T13:35:56;2.15;;;1.17;;
51286;SDS011;37364;46.974;18.916;2023-08-06T13:38:27;3.03;;;1.50;;
51286;SDS011;37364;46.974;18.916;2023-08-06T13:40:57;6.13;;;1.20;;
51286;SDS011;37364;46.974;18.916;2023-08-06T13:43:27;1.55;;;1.48;;
51286;SDS011;37364;46.974;18.916;2023-08-06T13:46:00;2.10;;;1.50;;
51286;SDS011;37364;46.974;18.916;2023-08-06T13:48:30;1.92;;;1.77;;
51286;SDS011;37364;46.974;18.916;2023-08-06T13:51:00;1.90;;;1.75;;
51286;SDS011;37364;46.974;18.916;2023-08-06T13:53:30;3.70;;;1.73;;
51286;SDS011;37364;46.974;18.916;2023-08-06T13:56:00;5.50;;;1.80;;
51286;SDS011;37364;46.974;18.916;2023-08-06T13:58:31;2.38;;;2.10;;
51286;SDS011;37364;46.974;18.916;2023-08-06T14:01:03;1.98;;;1.80;;
51286;SDS011;37364;46.974;18.916;2023-08-06T14:03:34;10.32;;;2.10;;
51286;SDS011;37364;46.974;18.916;2023-08-06T14:06:04;3.03;;;2.25;;
51286;SDS011;37364;46.974;18.916;2023-08-06T14:08:37;2.95;;;2.65;;
51286;SDS011;37364;46.974;18.916;2023-08-06T14:11:08;1.70;;;1.60;;
51286;SDS011;37364;46.974;18.916;2023-08-06T14:13:38;1.75;;;1.65;;
51286;SDS011;37364;46.974;18.916;2023-08-06T14:16:10;2.67;;;1.92;;
51286;SDS011;37364;46.974;18.916;2023-08-06T14:18:41;6.03;;;2.25;;
51286;SDS011;37364;46.974;18.916;2023-08-06T14:21:11;4.55;;;2.17;;
51286;SDS011;37364;46.974;18.916;2023-08-06T14:23:41;6.18;;;2.38;;
51286;SDS011;37364;46.974;18.916;2023-08-06T14:26:12;7.97;;;4.63;;
51286;SDS011;37364;46.974;18.916;2023-08-06T14:28:42;7.55;;;2.50;;
51286;SDS011;37364;46.974;18.916;2023-08-06T14:31:15;3.15;;;2.55;;
51286;SDS011;37364;46.974;18.916;2023-08-06T14:33:45;3.47;;;2.75;;
51286;SDS011;37364;46.974;18.916;2023-08-06T14:36:15;3.53;;;2.83;;
51286;SDS011;37364;46.974;18.916;2023-08-06T14:38:45;3.70;;;3.15;;
51286;SDS011;37364;46.974;18.916;2023-08-06T14:41:26;1.33;;;1.33;;
51286;SDS011;37364;46.974;18.916;2023-08-06T14:43:56;1.90;;;1.60;;
51286;SDS011;37364;46.974;18.916;2023-08-06T14:46:29;3.90;;;1.77;;
51286;SDS011;37364;46.974;18.916;2023-08-06T14:49:01;1.80;;;1.70;;
51286;SDS011;37364;46.974;18.916;2023-08-06T14:51:32;9.43;;;1.27;;
51286;SDS011;37364;46.974;18.916;2023-08-06T14:54:02;1.63;;;1.50;;
51286;SDS011;37364;46.974;18.916;2023-08-06T14:56:32;1.88;;;1.75;;
51286;SDS011;37364;46.974;18.916;2023-08-06T14:59:02;8.23;;;2.47;;
51286;SDS011;37364;46.974;18.916;2023-08-06T15:01:35;2.55;;;1.70;;
51286;SDS011;37364;46.974;18.916;2023-08-06T15:04:05;2.20;;;1.90;;